Time;durP1;ratioP1;P1;durP2;ratioP2;P2;SDS_P1;SDS_P2;PMS_P1;PMS_P2;Temp;Humidity;BMP_temperature;BMP_pressure;BME280_temperature;BME280_humidity;BME280_pressure;Samples;Min_cycle;Max_cycle;Signal;HPM_P1;HPM_P2
2023/01/05 00:00:54;;;;;;;;;2.00;2.00;;;;;13.21;88.93;101527.41;5016594;28;45847;-65
2023/01/05 00:03:20;;;;;;;;;1.00;1.00;;;;;13.21;88.89;101525.63;5017135;28;45333;-64
2023/01/05 00:05:45;;;;;;;;;1.50;1.50;;;;;13.19;88.83;101524.81;5017059;28;46530;-64
2023/01/05 00:08:12;;;;;;;;;0.00;0.00;;;;;13.19;88.41;101522.19;5017228;28;45551;-63
2023/01/05 00:24:28;;;;;;;;;1.25;1.25;;;;;13.16;87.92;101524.94;5036767;28;45503;-64
2023/01/05 00:26:53;;;;;;;;;1.00;1.00;;;;;13.16;87.67;101530.22;5018280;28;47460;-61
2023/01/05 00:29:18;;;;;;;;;1.00;1.00;;;;;13.14;87.92;101530.25;5019349;28;45967;-67
2023/01/05 00:31:44;;;;;;;;;6.25;6.25;;;;;13.14;87.54;101532.06;5016192;28;45185;-65
2023/01/05 00:34:09;;;;;;;;;4.50;4.50;;;;;13.13;87.80;101525.91;5016640;28;45550;-65
2023/01/05 00:36:34;;;;;;;;;2.00;2.00;;;;;13.12;87.36;101526.81;5014426;28;46309;-64
2023/01/05 00:38:59;;;;;;;;;3.00;3.00;;;;;13.05;87.15;101508.63;5013916;28;59016;-64
2023/01/05 00:41:25;;;;;;;;;1.00;1.00;;;;;13.13;87.52;101531.19;5015702;28;45472;-67
2023/01/05 00:43:50;;;;;;;;;4.00;4.00;;;;;13.12;87.37;101531.25;5016443;28;47248;-63
2023/01/05 00:46:16;;;;;;;;;3.00;3.00;;;;;13.10;87.04;101533.09;5016419;28;52931;-64
2023/01/05 00:48:41;;;;;;;;;0.00;0.00;;;;;13.05;86.99;101532.38;5016369;28;45284;-62
2023/01/05 00:51:06;;;;;;;;;2.00;2.00;;;;;13.08;87.02;101542.84;5016106;28;51608;-66
2023/01/05 00:53:31;;;;;;;;;3.75;3.75;;;;;13.04;87.15;101534.16;5016417;28;45576;-64
2023/01/05 00:55:57;;;;;;;;;0.50;0.50;;;;;13.03;87.27;101537.72;5016226;28;48145;-62
2023/01/05 00:58:23;;;;;;;;;1.75;1.75;;;;;12.94;86.93;101520.41;5015180;28;45434;-65
2023/01/05 01:00:48;;;;;;;;;1.00;1.00;;;;;13.02;86.73;101540.41;5015369;28;58084;-63
2023/01/05 01:03:14;;;;;;;;;1.00;1.00;;;;;13.00;86.64;101541.34;4998416;28;45533;-65
2023/01/05 01:05:39;;;;;;;;;1.00;1.00;;;;;12.98;86.58;101543.16;5014966;28;45791;-64
2023/01/05 01:08:04;;;;;;;;;0.00;0.00;;;;;12.97;86.19;101533.53;5016347;28;52067;-64
2023/01/05 01:10:29;;;;;;;;;1.00;1.00;;;;;12.90;86.14;101523.22;5016996;28;45349;-65
2023/01/05 01:12:55;;;;;;;;;1.00;1.00;;;;;12.94;86.13;101525.69;5015486;28;45545;-65
2023/01/05 01:15:20;;;;;;;;;0.00;0.00;;;;;12.94;85.52;101532.75;5016369;28;46114;-63
2023/01/05 01:17:45;;;;;;;;;0.00;0.00;;;;;12.95;85.71;101530.06;5016189;28;45445;-63
2023/01/05 01:20:11;;;;;;;;;0.50;0.50;;;;;12.86;85.62;101512.75;5016394;28;45260;-64
2023/01/05 01:22:36;;;;;;;;;0.00;0.00;;;;;12.91;85.46;101522.28;5017208;28;45582;-64
2023/01/05 01:25:02;;;;;;;;;0.00;0.00;;;;;12.89;84.90;101524.13;5015986;28;45591;-65
2023/01/05 01:27:29;;;;;;;;;1.00;0.25;;;;;12.87;85.06;101532.13;4998151;28;45358;-62
2023/01/05 01:29:54;;;;;;;;;0.00;0.00;;;;;12.88;85.23;101528.56;5016076;28;45269;-64
2023/01/05 01:32:20;;;;;;;;;1.00;1.00;;;;;12.83;85.19;101517.28;5016447;28;45221;-65
2023/01/05 01:34:45;;;;;;;;;1.00;1.00;;;;;12.85;84.83;101528.66;5016521;28;46111;-63
2023/01/05 01:37:11;;;;;;;;;1.00;1.00;;;;;12.85;85.02;101526.88;5015784;28;45241;-62
2023/01/05 01:39:36;;;;;;;;;0.00;0.00;;;;;12.77;84.77;101518.34;4997945;28;45381;-64
2023/01/05 01:42:02;;;;;;;;;0.75;0.75;;;;;12.81;84.96;101530.53;5015892;28;45440;-62
2023/01/05 01:44:46;;;;;;;;;1.00;1.00;;;;;12.83;84.97;101543.69;5015877;28;45694;-63
2023/01/05 01:47:17;;;;;;;;;0.25;0.25;;;;;12.83;85.21;101541.06;5015427;28;45439;-64
2023/01/05 01:49:43;;;;;;;;;1.75;1.75;;;;;12.78;85.52;101529.78;5014325;28;45269;-61
2023/01/05 01:52:09;;;;;;;;;0.00;0.00;;;;;12.78;85.48;101527.16;5015956;28;45438;-66
2023/01/05 01:54:34;;;;;;;;;0.25;0.25;;;;;12.83;85.50;101538.41;5016246;28;46324;-66
2023/01/05 01:57:00;;;;;;;;;0.00;0.00;;;;;12.83;85.75;101544.53;5015593;28;45339;-66
2023/01/05 01:59:27;;;;;;;;;1.00;1.00;;;;;12.83;86.01;101536.63;5016175;28;45222;-66
2023/01/05 02:01:56;;;;;;;;;1.00;1.00;;;;;12.64;85.57;101509.97;5016190;28;45549;-66
2023/01/05 02:04:25;;;;;;;;;0.25;0.25;;;;;12.83;85.86;101533.13;5015913;28;46220;-67
2023/01/05 02:06:52;;;;;;;;;0.00;0.00;;;;;12.83;85.63;101546.34;5015885;28;45300;-62
2023/01/05 02:09:18;;;;;;;;;0.25;0.25;;;;;12.73;84.94;101534.38;5015428;28;45383;-65
2023/01/05 02:12:02;;;;;;;;;0.75;0.75;;;;;12.75;84.93;101538.66;5015703;28;45289;-63
2023/01/05 02:14:52;;;;;;;;;0.75;0.75;;;;;12.75;84.80;101540.47;5014249;28;47127;-64
2023/01/05 02:17:28;;;;;;;;;0.75;0.75;;;;;12.74;84.21;101550.13;5015468;28;45374;-63
2023/01/05 02:20:34;;;;;;;;;1.75;1.75;;;;;12.70;83.54;101544.09;5015874;28;45255;-62
2023/01/05 02:23:11;;;;;;;;;0.75;0.75;;;;;12.68;83.61;101545.91;4998301;28;45585;-63
2023/01/05 02:26:01;;;;;;;;;1.25;1.25;;;;;12.50;83.06;101518.38;5013218;28;48089;-62
2023/01/05 02:28:27;;;;;;;;;1.00;1.00;;;;;12.66;82.75;101547.75;5013682;28;45306;-63
2023/01/05 02:31:04;;;;;;;;;0.00;0.00;;;;;12.66;82.49;101554.81;5015593;28;45458;-66
2023/01/05 02:33:54;;;;;;;;;1.00;1.00;;;;;12.65;82.50;101556.56;5015181;28;45274;-64
2023/01/05 02:36:22;;;;;;;;;2.00;2.00;;;;;12.65;82.35;101561.84;5014583;28;45365;-62
2023/01/05 02:39:13;;;;;;;;;1.00;1.00;;;;;12.65;82.56;101559.22;5015428;28;45365;-63
2023/01/05 02:41:56;;;;;;;;;0.00;0.00;;;;;12.68;82.41;101563.53;5016142;28;45411;-67
2023/01/05 02:44:21;;;;;;;;;0.50;0.50;;;;;12.70;82.43;101565.22;5015094;28;45505;-68
2023/01/05 02:46:59;;;;;;;;;1.00;1.00;;;;;12.70;81.99;101565.22;5014908;28;45377;-64
2023/01/05 02:49:26;;;;;;;;;1.00;1.00;;;;;12.70;82.15;101565.22;5015750;28;45562;-64
2023/01/05 02:51:55;;;;;;;;;0.00;0.00;;;;;12.72;82.02;101562.53;5014262;28;45399;-66
2023/01/05 02:54:27;;;;;;;;;1.00;1.00;;;;;12.71;82.00;101547.59;5014421;28;45392;-66
2023/01/05 02:57:03;;;;;;;;;1.00;0.00;;;;;12.72;81.74;101544.06;5014910;28;45310;-65
2023/01/05 02:59:52;;;;;;;;;0.00;0.00;;;;;12.71;81.72;101544.97;5014307;28;45320;-65
2023/01/05 03:02:26;;;;;;;;;1.00;1.00;;;;;12.71;81.95;101543.16;5014716;28;45292;-64
2023/01/05 03:05:03;;;;;;;;;0.25;0.25;;;;;12.71;82.11;101535.25;5014571;28;45327;-63
2023/01/05 03:07:33;;;;;;;;;1.00;1.00;;;;;12.74;82.34;101549.28;5014305;28;46209;-63
2023/01/05 03:13:39;;;;;;;;;0.00;0.00;;;;;12.74;82.31;101554.56;5014495;28;45345;-65
2023/01/05 03:15:33;;;;;;;;;1.00;1.00;;;;;12.74;82.54;101557.22;5014919;28;45334;-66
2023/01/05 03:18:08;;;;;;;;;0.00;0.00;;;;;12.75;82.70;101558.94;5014610;28;46366;-64
2023/01/05 03:20:37;;;;;;;;;0.00;0.00;;;;;12.76;82.45;101552.75;5014413;28;45482;-67
2023/01/05 03:37:59;;;;;;;;;1.00;1.00;;;;;12.76;81.63;101550.94;5038141;28;45437;-67
2023/01/05 03:40:29;;;;;;;;;1.00;1.00;;;;;12.74;81.21;101559.84;5038681;28;46233;-61
2023/01/05 03:42:55;;;;;;;;;1.25;1.25;;;;;12.61;80.96;101538.28;5021141;28;45451;-63
2023/01/05 03:45:22;;;;;;;;;0.00;0.00;;;;;12.70;80.73;101561.72;5038509;28;45260;-67
2023/01/05 03:47:48;;;;;;;;;1.75;1.25;;;;;12.69;81.09;101574.03;5037631;28;45213;-62
2023/01/05 03:50:13;;;;;;;;;0.75;0.75;;;;;12.66;80.82;101568.88;5036876;28;47241;-61
2023/01/05 03:52:39;;;;;;;;;1.00;1.00;;;;;12.65;80.73;101566.28;5037214;28;45208;-62
2023/01/05 03:55:05;;;;;;;;;0.00;0.00;;;;;12.65;80.98;101569.78;5019330;28;45254;-62
2023/01/05 03:57:30;;;;;;;;;1.50;1.50;;;;;12.59;80.72;101559.41;5037858;28;45539;-63
2023/01/05 03:59:55;;;;;;;;;1.50;1.50;;;;;12.67;80.74;101570.59;5036959;28;52853;-63
2023/01/05 04:02:20;;;;;;;;;2.00;2.00;;;;;12.65;81.02;101561.00;5036651;28;64057;-67
2023/01/05 04:04:46;;;;;;;;;0.75;0.75;;;;;12.70;80.63;101570.47;5037234;28;45642;-65
2023/01/05 04:07:11;;;;;;;;;1.00;1.00;;;;;12.71;80.66;101566.94;5037479;28;45341;-66
2023/01/05 04:09:36;;;;;;;;;1.00;1.00;;;;;12.74;80.88;101565.13;5036995;28;45484;-67
2023/01/05 04:12:02;;;;;;;;;1.00;1.00;;;;;12.75;80.84;101572.13;5036795;28;58715;-66
2023/01/05 04:14:27;;;;;;;;;2.00;2.00;;;;;12.76;80.79;101568.59;5039678;28;45576;-66
2023/01/05 04:16:52;;;;;;;;;2.00;2.00;;;;;12.76;80.82;101558.88;5037244;28;45416;-65
2023/01/05 04:19:18;;;;;;;;;5.00;5.00;;;;;12.70;80.63;101546.72;5036761;28;45663;-66
2023/01/05 04:21:43;;;;;;;;;4.75;4.75;;;;;12.78;80.72;101561.47;5037026;28;45270;-68
2023/01/05 04:24:09;;;;;;;;;6.00;6.00;;;;;12.73;80.66;101563.41;5036780;28;45419;-66
2023/01/05 04:26:36;;;;;;;;;5.75;5.75;;;;;12.74;80.84;101565.13;5037304;28;45293;-65
2023/01/05 04:29:02;;;;;;;;;5.25;5.25;;;;;12.69;81.06;101560.84;5037177;28;46175;-67
2023/01/05 04:31:27;;;;;;;;;3.00;3.00;;;;;12.71;81.07;101560.81;5037225;28;45213;-65
2023/01/05 04:33:53;;;;;;;;;4.50;4.50;;;;;12.70;81.15;101559.94;5036375;28;46896;-66
2023/01/05 04:36:18;;;;;;;;;3.00;3.00;;;;;12.74;81.35;101570.41;5036651;28;45279;-68
2023/01/05 04:38:43;;;;;;;;;2.00;2.00;;;;;12.71;81.57;101566.94;5035058;28;46217;-67
2023/01/05 04:41:10;;;;;;;;;2.75;2.75;;;;;12.74;81.33;101571.25;5036348;28;45337;-67
2023/01/05 04:43:35;;;;;;;;;1.75;1.75;;;;;12.73;81.46;101572.19;5036655;28;45190;-64
2023/01/05 04:46:00;;;;;;;;;1.00;1.00;;;;;12.74;81.31;101571.25;5036840;28;45194;-66
2023/01/05 04:48:26;;;;;;;;;0.75;0.75;;;;;12.74;81.75;101571.25;5036169;28;46246;-66
2023/01/05 04:50:53;;;;;;;;;1.00;1.00;;;;;12.76;81.83;101568.59;5036734;28;45332;-65
2023/01/05 04:53:18;;;;;;;;;1.00;1.00;;;;;12.75;81.71;101572.13;5037122;28;45795;-65
2023/01/05 04:55:44;;;;;;;;;1.50;1.50;;;;;12.73;81.57;101566.06;5036514;28;45536;-63
2023/01/05 04:58:10;;;;;;;;;1.00;1.00;;;;;12.69;81.60;101563.47;5018234;28;47151;-65
2023/01/05 05:00:35;;;;;;;;;2.00;1.00;;;;;12.66;81.76;101560.94;5038279;28;45328;-65
2023/01/05 05:03:01;;;;;;;;;0.50;0.50;;;;;12.65;81.78;101559.22;5036565;28;45574;-67
2023/01/05 05:05:26;;;;;;;;;0.00;0.00;;;;;12.45;81.99;101524.72;5036329;28;45209;-64
2023/01/05 05:07:52;;;;;;;;;0.25;0.25;;;;;12.66;81.86;101560.94;5036060;28;46134;-62
2023/01/05 05:10:17;;;;;;;;;0.00;0.00;;;;;12.63;81.92;101558.41;5036033;28;45338;-64
2023/01/05 05:12:43;;;;;;;;;1.00;1.00;;;;;12.64;82.08;101552.22;5036452;28;45321;-64
2023/01/05 05:15:09;;;;;;;;;2.00;2.00;;;;;12.55;82.00;101534.03;5036557;28;45570;-62
2023/01/05 05:17:34;;;;;;;;;1.00;1.00;;;;;12.64;82.55;101549.56;5036571;28;45434;-65
2023/01/05 05:20:00;;;;;;;;;2.00;2.00;;;;;12.42;82.25;101513.34;5035851;28;45512;-63
2023/01/05 05:22:26;;;;;;;;;1.00;1.00;;;;;12.65;82.52;101545.19;5036018;28;45309;-61
2023/01/05 05:24:52;;;;;;;;;0.00;0.00;;;;;12.65;82.55;101555.72;5036034;28;45313;-63
2023/01/05 05:27:17;;;;;;;;;2.00;0.50;;;;;12.63;82.49;101555.75;5035439;28;45410;-63
2023/01/05 05:29:42;;;;;;;;;0.00;0.00;;;;;12.58;82.52;101544.50;5035543;28;45434;-62
2023/01/05 05:32:08;;;;;;;;;2.00;2.00;;;;;12.59;82.77;101550.66;5035612;28;45431;-65
2023/01/05 05:34:33;;;;;;;;;1.00;1.00;;;;;12.56;83.10;101546.31;5036223;28;45297;-62
2023/01/05 05:36:58;;;;;;;;;0.00;0.00;;;;;12.54;83.05;101553.44;5035415;28;45932;-62
2023/01/05 05:39:23;;;;;;;;;0.00;0.00;;;;;12.52;83.13;101549.97;5035368;28;45325;-66
2023/01/05 05:41:49;;;;;;;;;0.50;0.50;;;;;12.52;83.17;101549.97;5035977;28;45399;-64
2023/01/05 05:44:14;;;;;;;;;1.00;1.00;;;;;12.51;83.45;101564.09;5035877;28;45477;-62
2023/01/05 05:46:40;;;;;;;;;0.00;0.00;;;;;12.50;83.55;101559.72;5036328;28;46051;-64
2023/01/05 05:49:07;;;;;;;;;0.00;0.00;;;;;12.47;83.90;101547.50;5035705;28;45478;-62
2023/01/05 05:51:32;;;;;;;;;0.00;0.00;;;;;12.50;83.74;101559.72;5035723;28;45297;-65
2023/01/05 05:53:58;;;;;;;;;0.00;0.00;;;;;12.45;84.04;101556.38;5035412;28;45641;-65
2023/01/05 05:56:23;;;;;;;;;1.00;1.00;;;;;12.49;83.90;101566.78;5035369;28;45309;-63
2023/01/05 05:58:48;;;;;;;;;0.25;0.25;;;;;12.44;84.03;101557.28;5034265;28;49344;-63
2023/01/05 06:01:14;;;;;;;;;0.00;0.00;;;;;12.51;84.30;101572.88;5035063;28;45306;-65
2023/01/05 06:03:39;;;;;;;;;0.00;0.00;;;;;12.52;84.33;101574.63;5035096;28;45509;-64
2023/01/05 06:06:05;;;;;;;;;0.00;0.00;;;;;12.53;84.27;101573.69;5035077;28;51938;-69
2023/01/05 06:08:30;;;;;;;;;2.00;2.00;;;;;12.55;84.26;101578.91;5034911;28;45409;-65
2023/01/05 06:10:56;;;;;;;;;0.00;0.00;;;;;12.55;84.20;101582.44;5035273;28;45807;-67
2023/01/05 06:13:22;;;;;;;;;1.00;1.00;;;;;12.55;84.09;101586.81;5035123;28;45492;-66
2023/01/05 06:15:48;;;;;;;;;1.00;1.00;;;;;12.55;84.33;101587.72;5016789;28;47076;-66
2023/01/05 06:18:13;;;;;;;;;1.00;1.00;;;;;12.53;84.15;101586.00;5034638;28;45383;-66
2023/01/05 06:20:39;;;;;;;;;1.00;1.00;;;;;12.55;84.27;101592.09;5034217;28;52504;-66
2023/01/05 06:23:05;;;;;;;;;1.00;1.00;;;;;12.56;84.40;101599.13;5017291;28;45362;-65
2023/01/05 06:25:30;;;;;;;;;0.00;0.00;;;;;12.55;84.43;101598.25;5034973;28;46295;-66
2023/01/05 06:27:56;;;;;;;;;1.00;1.00;;;;;12.55;84.43;101592.09;5034852;28;45358;-65
2023/01/05 06:30:21;;;;;;;;;0.00;0.00;;;;;12.51;84.20;101591.34;5035002;28;48445;-66
2023/01/05 06:32:46;;;;;;;;;1.50;1.50;;;;;12.56;84.41;101596.47;5035483;28;45316;-66
2023/01/05 06:35:12;;;;;;;;;1.00;1.00;;;;;12.58;84.59;101602.56;5034535;28;45210;-66
2023/01/05 06:37:37;;;;;;;;;0.00;0.00;;;;;12.59;84.36;101608.72;5034677;28;49463;-66
2023/01/05 06:40:03;;;;;;;;;0.50;0.50;;;;;12.57;84.46;101606.13;5034886;28;45412;-63
2023/01/05 06:42:29;;;;;;;;;1.00;1.00;;;;;12.56;84.71;101601.75;5034981;28;45599;-64
2023/01/05 06:44:54;;;;;;;;;1.00;1.00;;;;;12.53;84.78;101600.09;5034491;28;45823;-62
2023/01/05 06:47:19;;;;;;;;;0.00;0.00;;;;;12.53;84.60;101600.09;5034685;28;45780;-61
2023/01/05 06:49:45;;;;;;;;;0.00;0.00;;;;;12.48;84.67;101596.75;5034723;28;45189;-61
2023/01/05 06:52:10;;;;;;;;;0.00;0.00;;;;;12.55;84.57;101614.09;5034635;28;45503;-65
2023/01/05 06:54:35;;;;;;;;;1.25;1.25;;;;;12.54;84.99;101611.50;5034808;28;46125;-65
2023/01/05 06:57:01;;;;;;;;;0.50;0.50;;;;;12.53;84.90;101610.66;5033948;28;60771;-64
2023/01/05 06:59:26;;;;;;;;;1.00;1.00;;;;;12.52;85.04;101608.91;5033760;28;55875;-62
2023/01/05 07:01:52;;;;;;;;;1.00;1.00;;;;;12.56;84.98;101614.94;5034645;28;45539;-63
2023/01/05 07:04:17;;;;;;;;;1.00;1.00;;;;;12.58;85.17;101615.75;5033900;28;45333;-66
2023/01/05 07:06:43;;;;;;;;;0.00;0.00;;;;;12.58;85.32;101618.41;5015791;28;45346;-63
2023/01/05 07:09:08;;;;;;;;;1.00;1.00;;;;;12.59;85.41;101608.72;5034478;28;45357;-64
2023/01/05 07:11:33;;;;;;;;;1.00;1.00;;;;;12.61;85.35;101622.72;5035483;28;45423;-64
2023/01/05 07:13:59;;;;;;;;;3.00;3.00;;;;;12.61;85.35;101622.72;5037592;28;46071;-63
2023/01/05 07:16:24;;;;;;;;;1.00;1.00;;;;;12.57;85.59;101617.56;5037618;28;45443;-64
2023/01/05 07:18:49;;;;;;;;;1.00;1.00;;;;;12.60;85.75;101624.50;5038999;28;45428;-65
2023/01/05 07:21:15;;;;;;;;;1.00;1.00;;;;;12.57;85.74;101609.63;5038330;28;45384;-64
2023/01/05 07:23:40;;;;;;;;;2.00;2.00;;;;;12.59;85.64;101614.84;5037818;28;46558;-65
2023/01/05 07:26:07;;;;;;;;;3.25;3.25;;;;;12.67;85.67;101627.81;5019617;28;45877;-65
2023/01/05 07:28:33;;;;;;;;;2.00;2.00;;;;;12.68;86.01;101622.47;5037875;28;45190;-67
2023/01/05 07:30:59;;;;;;;;;1.75;1.75;;;;;12.68;85.90;101625.09;5038135;28;45522;-64
2023/01/05 07:33:24;;;;;;;;;3.00;3.00;;;;;12.70;85.71;101627.72;5037140;28;46057;-65
2023/01/05 07:35:50;;;;;;;;;2.00;2.00;;;;;12.70;85.78;101625.06;5037531;28;45290;-64
2023/01/05 07:38:15;;;;;;;;;1.75;1.75;;;;;12.69;85.88;101628.63;5037267;28;45269;-64
2023/01/05 07:40:40;;;;;;;;;2.00;2.00;;;;;12.72;85.91;101625.88;5019312;28;45483;-67
2023/01/05 07:43:06;;;;;;;;;1.25;1.25;;;;;12.72;85.94;101628.53;5036172;28;46142;-65
2023/01/05 07:45:31;;;;;;;;;5.50;5.50;;;;;12.76;85.81;101629.31;5037458;28;45309;-68
2023/01/05 07:47:56;;;;;;;;;2.00;2.00;;;;;12.78;86.14;101630.13;5037445;28;45305;-68
2023/01/05 07:50:22;;;;;;;;;2.00;2.00;;;;;12.76;85.88;101622.22;5037922;28;45436;-62
2023/01/05 07:52:47;;;;;;;;;2.25;2.00;;;;;12.81;86.02;101633.50;5037017;28;45395;-64
2023/01/05 07:55:13;;;;;;;;;1.00;1.00;;;;;12.81;86.16;101635.31;5037466;28;45446;-66
2023/01/05 07:57:39;;;;;;;;;1.00;1.00;;;;;12.77;86.09;101623.97;5037587;28;45403;-66
2023/01/05 08:00:05;;;;;;;;;2.00;2.00;;;;;12.79;85.90;101629.22;5037622;28;45313;-65
2023/01/05 08:02:31;;;;;;;;;3.25;3.25;;;;;12.81;85.86;101627.38;5036952;28;46348;-63
2023/01/05 08:04:57;;;;;;;;;3.25;3.25;;;;;12.84;86.50;101635.19;5037938;28;45396;-65
2023/01/05 08:07:22;;;;;;;;;3.00;3.00;;;;;12.88;86.35;101634.19;5019331;28;45365;-66
2023/01/05 08:12:32;;;;;;;;;5.00;5.00;;;;;12.90;86.28;101623.56;5037083;28;45750;-64
2023/01/05 08:14:57;;;;;;;;;2.25;2.25;;;;;12.98;86.32;101642.66;5018662;28;46128;-63
2023/01/05 08:17:23;;;;;;;;;3.00;3.00;;;;;13.03;86.08;101643.34;5037325;28;45456;-68
2023/01/05 08:19:48;;;;;;;;;5.00;5.00;;;;;13.04;85.96;101647.72;5035397;28;45576;-67
2023/01/05 08:22:13;;;;;;;;;4.00;4.00;;;;;13.01;86.07;101634.63;5035630;28;46068;-66
2023/01/05 08:24:39;;;;;;;;;4.00;4.00;;;;;13.12;85.91;101648.31;5034034;28;45486;-66
2023/01/05 08:27:04;;;;;;;;;5.00;5.00;;;;;13.07;85.91;101638.84;5026429;28;45322;-64
2023/01/05 08:29:29;;;;;;;;;4.00;4.00;;;;;13.15;85.65;101647.38;5014741;28;45628;-63
2023/01/05 08:31:55;;;;;;;;;4.25;4.25;;;;;13.20;85.57;101648.06;5015652;28;46261;-64
2023/01/05 08:34:20;;;;;;;;;4.00;4.00;;;;;13.21;85.49;101655.09;5024522;28;45218;-65
2023/01/05 08:36:46;;;;;;;;;2.00;2.00;;;;;13.16;85.49;101643.81;5036484;28;45312;-61
2023/01/05 08:39:12;;;;;;;;;11.25;11.25;;;;;13.27;85.54;101652.22;5035374;28;45443;-64
2023/01/05 08:41:39;;;;;;;;;2.25;2.25;;;;;13.29;85.31;101649.56;5036094;28;46118;-63
2023/01/05 08:44:13;;;;;;;;;3.25;3.25;;;;;13.32;85.11;101651.22;5036021;28;45502;-63
2023/01/05 08:46:38;;;;;;;;;1.50;1.50;;;;;13.31;84.78;101639.78;5034846;28;45506;-62
2023/01/05 08:49:05;;;;;;;;;5.75;5.75;;;;;13.33;84.74;101652.94;5036803;28;45342;-61
2023/01/05 08:51:31;;;;;;;;;3.00;3.00;;;;;13.37;84.81;101654.56;5034643;28;45958;-63
2023/01/05 08:53:57;;;;;;;;;3.25;3.25;;;;;13.40;84.40;101649.16;5036758;28;45332;-65
2023/01/05 08:56:24;;;;;;;;;2.25;2.25;;;;;13.42;84.37;101650.88;5036927;28;45401;-63
2023/01/05 08:58:49;;;;;;;;;4.50;4.50;;;;;13.42;84.05;101648.25;5036725;28;45331;-63
2023/01/05 09:01:17;;;;;;;;;2.00;2.00;;;;;13.45;84.37;101649.91;5035948;28;45364;-62
2023/01/05 09:03:43;;;;;;;;;5.00;5.00;;;;;13.41;84.35;101637.69;5036245;28;45348;-62
2023/01/05 09:06:10;;;;;;;;;2.25;2.25;;;;;13.52;84.07;101654.03;5023221;28;45353;-63
2023/01/05 09:08:37;;;;;;;;;5.00;5.00;;;;;13.53;83.62;101658.41;5035910;28;45757;-63
2023/01/05 09:11:17;;;;;;;;;4.00;4.00;;;;;13.55;83.52;101646.00;5035597;28;46353;-65
2023/01/05 09:13:48;;;;;;;;;1.00;1.00;;;;;13.58;83.18;101647.69;5036046;28;45374;-65
2023/01/05 09:16:16;;;;;;;;;4.00;3.00;;;;;13.53;83.10;101639.91;5036321;28;45305;-63
2023/01/05 09:18:41;;;;;;;;;2.00;2.00;;;;;13.63;82.86;101650.16;5036079;28;45219;-65
2023/01/05 09:21:08;;;;;;;;;2.00;2.00;;;;;13.67;82.83;101657.06;5035512;28;45518;-63
2023/01/05 09:23:34;;;;;;;;;0.00;0.00;;;;;13.69;82.89;101658.75;5035454;28;45264;-65
2023/01/05 09:26:02;;;;;;;;;2.75;2.75;;;;;13.66;83.06;101650.03;5035509;28;45455;-62
2023/01/05 09:28:27;;;;;;;;;4.25;4.25;;;;;13.67;82.41;101646.47;5035689;28;45480;-64
2023/01/05 09:30:52;;;;;;;;;3.00;3.00;;;;;13.79;82.22;101661.06;5034582;28;56439;-62
2023/01/05 09:33:17;;;;;;;;;1.00;1.00;;;;;13.79;82.10;101656.63;5034890;28;62807;-63
2023/01/05 09:35:43;;;;;;;;;1.25;1.25;;;;;13.80;82.06;101661.00;5034828;28;45317;-62
2023/01/05 09:38:08;;;;;;;;;2.00;2.00;;;;;13.82;81.94;101661.81;5035401;28;51192;-62
2023/01/05 09:40:39;;;;;;;;;3.00;3.00;;;;;13.84;81.79;101654.69;5035292;28;47943;-63
2023/01/05 09:43:06;;;;;;;;;1.75;1.75;;;;;13.88;81.65;101660.72;5035354;28;45353;-63
2023/01/05 09:45:32;;;;;;;;;3.00;3.00;;;;;13.88;81.58;101661.59;5035046;28;45321;-62
2023/01/05 09:47:59;;;;;;;;;2.00;2.00;;;;;13.95;81.80;101671.94;5035311;28;45358;-63
2023/01/05 09:50:26;;;;;;;;;3.00;3.00;;;;;13.97;81.60;101668.31;5017201;28;47227;-62
2023/01/05 09:52:56;;;;;;;;;2.00;2.00;;;;;13.99;81.58;101668.25;5035119;28;45440;-61
2023/01/05 09:55:24;;;;;;;;;4.50;4.50;;;;;13.94;81.29;101660.47;5017717;28;45473;-64
2023/01/05 09:58:05;;;;;;;;;3.00;3.00;;;;;14.05;81.35;101665.38;5035652;28;45484;-62
2023/01/05 10:00:31;;;;;;;;;3.75;3.75;;;;;14.07;80.99;101660.03;5035034;28;46165;-62
2023/01/05 10:03:01;;;;;;;;;3.00;3.00;;;;;14.10;80.17;101676.66;5034845;28;45262;-64
2023/01/05 10:05:27;;;;;;;;;3.50;3.50;;;;;14.08;81.05;101677.63;5034782;28;45517;-65
2023/01/05 10:07:59;;;;;;;;;4.00;4.00;;;;;14.07;81.13;101676.78;5034978;28;45397;-62
2023/01/05 10:13:01;;;;;;;;;3.00;3.00;;;;;14.06;80.83;101669.75;5034642;28;46225;-63
2023/01/05 10:13:44;;;;;;;;;8.25;8.25;;;;;14.12;81.24;101679.22;5034338;28;45404;-63
2023/01/05 10:16:16;;;;;;;;;4.00;4.00;;;;;14.09;80.88;101674.94;5035120;28;45323;-62
2023/01/05 10:18:42;;;;;;;;;2.25;2.25;;;;;14.11;80.85;101682.78;5035152;28;45436;-64
2023/01/05 10:21:25;;;;;;;;;5.00;5.00;;;;;14.11;80.95;101683.69;5034515;28;46172;-64
2023/01/05 10:23:59;;;;;;;;;3.25;3.25;;;;;14.12;81.05;101674.81;5035852;28;45391;-62
2023/01/05 10:26:30;;;;;;;;;2.00;2.00;;;;;14.13;81.00;101679.19;5034745;28;45186;-63
2023/01/05 10:29:07;;;;;;;;;3.00;3.00;;;;;14.12;80.76;101677.47;5035823;28;45980;-63
2023/01/05 10:31:54;;;;;;;;;4.75;4.75;;;;;14.11;80.97;101678.38;5034333;28;46195;-63
2023/01/05 10:34:22;;;;;;;;;3.00;3.00;;;;;14.12;81.18;101674.81;5034752;28;45326;-63
2023/01/05 10:37:16;;;;;;;;;3.25;3.25;;;;;14.13;81.26;101676.53;5034905;28;45412;-63
2023/01/05 10:39:56;;;;;;;;;5.00;5.00;;;;;14.16;81.35;101673.78;5016684;28;45585;-66
2023/01/05 10:43:00;;;;;;;;;6.00;6.00;;;;;14.20;81.02;101665.72;5034568;28;45332;-63
2023/01/05 10:45:29;;;;;;;;;3.25;3.25;;;;;14.20;81.21;101671.88;5015531;28;46198;-63
2023/01/05 10:47:54;;;;;;;;;7.25;7.25;;;;;14.20;81.25;101668.38;5037987;28;45347;-64
2023/01/05 10:50:33;;;;;;;;;5.25;5.25;;;;;14.20;81.28;101671.88;5041050;28;45493;-61
2023/01/05 10:53:06;;;;;;;;;7.25;7.25;;;;;14.22;81.78;101671.81;5039278;28;46019;-64
2023/01/05 10:55:37;;;;;;;;;5.50;5.50;;;;;14.15;81.39;101650.88;5037746;28;45263;-62
2023/01/05 10:58:02;;;;;;;;;7.00;7.00;;;;;14.21;82.03;101663.00;5037878;28;45345;-63
2023/01/05 11:00:48;;;;;;;;;7.25;7.25;;;;;14.19;82.25;101646.31;5038049;28;45163;-64
2023/01/05 11:03:17;;;;;;;;;7.75;6.75;;;;;14.24;81.71;101648.81;5037541;28;45273;-62
2023/01/05 11:05:46;;;;;;;;;6.25;6.25;;;;;14.27;81.96;101643.41;5037606;28;45486;-62
2023/01/05 11:08:20;;;;;;;;;7.00;7.00;;;;;14.30;81.91;101651.22;5037958;28;45389;-62
2023/01/05 11:10:56;;;;;;;;;4.75;4.75;;;;;14.31;81.68;101637.06;5038488;28;45269;-64
2023/01/05 11:13:29;;;;;;;;;16.25;16.25;;;;;14.34;81.81;101630.81;5038519;28;45708;-64
2023/01/05 11:16:06;;;;;;;;;5.25;5.25;;;;;14.39;81.70;101629.69;5019733;28;45539;-62
2023/01/05 11:18:39;;;;;;;;;8.00;8.00;;;;;14.34;81.77;101623.72;5037888;28;45508;-64
2023/01/05 11:21:35;;;;;;;;;6.25;6.25;;;;;14.42;81.63;101620.78;5037894;28;45328;-63
2023/01/05 11:24:02;;;;;;;;;5.75;5.75;;;;;14.45;81.92;101618.84;5026809;28;45619;-64
2023/01/05 11:26:36;;;;;;;;;6.50;6.50;;;;;14.40;81.71;101610.22;5037183;28;45202;-65
2023/01/05 11:29:08;;;;;;;;;6.00;6.00;;;;;14.45;81.64;101629.44;5035539;28;45380;-64
2023/01/05 11:31:41;;;;;;;;;8.50;8.50;;;;;14.42;81.83;101616.31;5037706;28;45293;-63
2023/01/05 11:34:15;;;;;;;;;5.00;5.00;;;;;14.38;82.18;101612.06;5037410;28;46067;-63
2023/01/05 11:36:42;;;;;;;;;6.25;6.25;;;;;14.40;82.20;101612.88;5037266;28;45455;-63
2023/01/05 11:39:21;;;;;;;;;5.75;5.75;;;;;14.41;81.90;101614.59;5037003;28;45351;-63
2023/01/05 11:41:47;;;;;;;;;5.25;5.25;;;;;14.44;81.83;101611.81;5019233;28;45337;-62
2023/01/05 11:44:21;;;;;;;;;8.25;8.25;;;;;14.44;82.10;101608.34;5037000;28;46563;-63
2023/01/05 11:46:47;;;;;;;;;7.00;7.00;;;;;14.48;81.94;101604.63;5037237;28;45527;-62
2023/01/05 11:49:18;;;;;;;;;6.25;5.75;;;;;14.51;81.67;101604.53;5037162;28;45298;-65
2023/01/05 11:51:43;;;;;;;;;31.50;30.75;;;;;14.46;81.64;101594.09;5037434;28;45431;-64
2023/01/05 11:54:30;;;;;;;;;7.25;7.25;;;;;14.56;81.30;101606.97;5037208;28;46560;-64
2023/01/05 11:57:21;;;;;;;;;8.50;8.50;;;;;14.54;81.25;101601.75;5018164;28;45346;-65
2023/01/05 11:59:47;;;;;;;;;14.25;14.25;;;;;14.55;81.41;101605.25;5036868;28;45417;-63
2023/01/05 12:02:32;;;;;;;;;5.50;5.50;;;;;14.49;80.98;101598.41;5019263;28;45578;-63
2023/01/05 12:04:57;;;;;;;;;7.00;7.00;;;;;14.45;81.49;101597.66;5018442;28;46008;-64